Mound, TX (76558)

12:48 AM CST on February 01, 2015 (GMT -0600)
GATESVILLE, TX (12 Miles SE) | Change Station
CLOSE
Current Station
Personal Weather Station
Location: Leon Junction, TX
Elevation: 760 ft
Nearby Weather Stations

Elev 760 ft 31.34 °N, 97.57 °W | Updated 12 seconds ago

Overcast
Overcast
62.8 °F
Feels Like 62.8 °F
N
4.0
Wind Variable Wind from South
Gusts 12.0 mph

Today
High -- | Low -- °F
--% Chance of Precip.
Yesterday
High -- | Low -- °F
Precip. -- in
7:22 AM 6:05 PM
Waxing Gibbous, 93% visible
Pressure 29.89 in
Visibility 10.0 miles
Clouds Overcast 900 ft
Dew Point 60 °F
Humidity 91%
Rainfall 0.00 in
Snow Depth Not available.
UV 0 out of 12
Pollen 7.10 out of 12
Air Quality Not available.
Flu Activity Not available.
SPECI KHLR 010643Z AUTO 18011KT 10SM OVC009 16/15 A2989 RMK AO2

More Conditions Fewer Conditions

Pressure 29.89 in
Visibility 10.0 miles
Clouds Overcast 900 ft
Dew Point 60 °F
Humidity 91%
Rainfall 0.00 in
Snow Depth Not available.
UV 0 out of 12
Pollen 7.10 out of 12
Air Quality Not available.
Flu Activity Not available.
SPECI KHLR 010643Z AUTO 18011KT 10SM OVC009 16/15 A2989 RMK AO2

More Conditions Fewer Conditions

Nowcast | as of 11:21 PM CST on January 31, 2015

Areas of rain will continue across much of North Texas overnight. Most of the rain was occurring along and north of Interstate 20 just prior to midnight. Activity is shifting east across the region...with individual showers moving northeast at 40 mph. Additional rainfall totals of a tenth to a quarter of an inch are possible in these locations through 2 am.

×

10-Day Weather Forecast

Almanac

Astronomy

Feb. 01, 2015 Rise Set
Actual Time
Civil Twilight
Nautical Twilight
Astronomical Twilight
Moon
Length of Visible Light
Length of Day
Tomorrow will be .
, % of the Moon is Illuminated

Today's Extremes

State Highs State Lows

Community

WunderPhotos

Upload Photos

1,792,324 photos uploaded!

WunderBlogs® & News

Nearby

Air Quality

  Air Quality AQ Index Pollutant
Not available.

Snow Depth

Station Depth Elevation

Earthquake Activity

City Distance Mag. Time & Date
Minimum magnitude displayed is 2.5.

Coastal Water Temperatures

Place Temperature

Nearby Weather Stations